createdAt,value
2023-01-27T00:01:14.011Z,35.4
2023-01-27T00:06:06.280Z,35.4
2023-01-27T00:10:57.818Z,35.4
2023-01-27T00:15:49.405Z,35.3
2023-01-27T00:20:41.064Z,35.3
2023-01-27T00:25:32.979Z,35.3
2023-01-27T00:30:40.462Z,35.2
2023-01-27T00:35:47.787Z,35.2
2023-01-27T00:40:39.856Z,35.2
2023-01-27T00:45:30.888Z,35.1
2023-01-27T00:50:36.734Z,35.1
2023-01-27T00:55:27.698Z,35.1
2023-01-27T01:00:34.624Z,35.1
2023-01-27T01:05:41.496Z,35
2023-01-27T01:10:48.752Z,35
2023-01-27T01:15:56.155Z,34.9
2023-01-27T01:21:02.747Z,34.9
2023-01-27T01:26:09.678Z,34.9
2023-01-27T01:31:33.170Z,34.9
2023-01-27T01:36:55.594Z,34.8
2023-01-27T01:42:20.634Z,34.8
2023-01-27T01:47:43.483Z,34.8
2023-01-27T01:53:05.405Z,34.8
2023-01-27T01:58:29.381Z,34.7
2023-01-27T02:03:52.622Z,34.7
2023-01-27T02:09:15.249Z,34.7
2023-01-27T02:14:37.217Z,34.6
2023-01-27T02:25:07.672Z,34.9
2023-01-27T02:35:11.002Z,35.8
2023-01-27T02:40:33.810Z,36.4
2023-01-27T02:45:56.534Z,37
2023-01-27T02:51:19.650Z,37.7
2023-01-27T02:56:41.660Z,38.4
2023-01-27T03:02:03.563Z,39
2023-01-27T03:07:26.933Z,39.5
2023-01-27T03:12:49.172Z,39.8
2023-01-27T03:17:56.725Z,40.1
2023-01-27T03:23:19.602Z,40.3
2023-01-27T03:28:42.390Z,40.4
2023-01-27T03:33:50.161Z,40.6
2023-01-27T03:39:12.848Z,40.8
2023-01-27T03:44:35.272Z,40.9
2023-01-27T03:49:58.398Z,41
2023-01-27T03:55:21.043Z,41
2023-01-27T04:00:43.583Z,41.1
2023-01-27T04:06:06.245Z,41
2023-01-27T04:11:28.593Z,41
2023-01-27T04:16:52.599Z,40.9
2023-01-27T04:21:58.836Z,40.9
2023-01-27T04:27:24.300Z,40.9
2023-01-27T04:32:58.021Z,40.9
2023-01-27T04:38:10.191Z,40.9
2023-01-27T04:43:33.680Z,40.9
2023-01-27T04:48:41.396Z,40.8
2023-01-27T04:53:47.929Z,40.8
2023-01-27T04:58:55.554Z,40.8
2023-01-27T05:04:02.964Z,40.8
2023-01-27T05:09:11.425Z,40.8
2023-01-27T05:14:18.868Z,40.7
2023-01-27T05:19:25.911Z,40.7
2023-01-27T05:24:34.304Z,40.6
2023-01-27T05:29:57.044Z,40.6
2023-01-27T05:35:20.233Z,40.6
2023-01-27T05:40:27.114Z,40.5
2023-01-27T05:45:50.514Z,40.5
2023-01-27T05:51:14.961Z,40.4
2023-01-27T05:56:38.201Z,40.4
2023-01-27T06:01:31.026Z,40.4
2023-01-27T06:06:39.804Z,40.4
2023-01-27T06:11:47.002Z,40.3
2023-01-27T06:16:55.205Z,40.3
2023-01-27T06:22:02.008Z,40.3
2023-01-27T06:27:25.076Z,40.3
2023-01-27T06:33:01.135Z,40.2
2023-01-27T06:38:23.853Z,40.1
2023-01-27T06:43:46.700Z,40.1
2023-01-27T06:49:09.997Z,40.1
2023-01-27T06:54:32.778Z,40
2023-01-27T06:59:58.204Z,40
2023-01-27T07:05:23.665Z,39.9
2023-01-27T07:10:58.208Z,39.9
2023-01-27T07:16:22.533Z,39.9
2023-01-27T07:21:47.440Z,39.8
2023-01-27T07:27:05.165Z,39.8
2023-01-27T07:32:28.664Z,39.8
2023-01-27T07:37:53.854Z,39.8
2023-01-27T07:43:17.397Z,39.7
2023-01-27T07:48:25.278Z,39.6
2023-01-27T07:53:32.264Z,39.6
2023-01-27T07:58:55.392Z,39.6
2023-01-27T08:04:18.522Z,39.5
2023-01-27T08:10:00.304Z,39.5
2023-01-27T08:15:23.345Z,39.4
2023-01-27T08:20:46.506Z,39.4
2023-01-27T08:26:09.433Z,39.4
2023-01-27T08:31:32.798Z,39.3
2023-01-27T08:36:55.201Z,39.3
2023-01-27T08:42:20.296Z,39.3
2023-01-27T08:47:43.400Z,39.2
2023-01-27T08:53:05.896Z,39.2
2023-01-27T08:58:28.780Z,39.1
2023-01-27T09:03:52.570Z,39.1
2023-01-27T09:09:15.221Z,39.1
2023-01-27T09:14:47.822Z,38.9
2023-01-27T09:20:10.668Z,38.9
2023-01-27T09:25:33.413Z,38.9
2023-01-27T09:31:05.205Z,38.9
2023-01-27T09:36:28.475Z,38.9
2023-01-27T09:41:51.418Z,38.8
2023-01-27T09:47:16.418Z,38.8
2023-01-27T09:52:47.735Z,38.7
2023-01-27T09:58:10.512Z,38.7
2023-01-27T10:03:33.363Z,38.6
2023-01-27T10:08:56.658Z,38.6
2023-01-27T10:14:19.856Z,38.6
2023-01-27T10:19:43.026Z,38.6
2023-01-27T10:25:05.465Z,38.5
2023-01-27T10:30:27.550Z,38.5
2023-01-27T10:35:51.023Z,38.4
2023-01-27T10:41:13.864Z,38.4
2023-01-27T10:46:36.915Z,38.4
2023-01-27T10:51:59.843Z,38.3
2023-01-27T10:57:22.199Z,38.3
2023-01-27T11:03:48.598Z,38.3
2023-01-27T11:09:11.253Z,38.2
2023-01-27T11:14:34.193Z,38.1
2023-01-27T11:19:56.670Z,38.1
2023-01-27T11:25:31.930Z,38.1
2023-01-27T11:30:56.573Z,38
2023-01-27T11:36:19.019Z,38
2023-01-27T11:41:56.300Z,37.9
2023-01-27T11:47:18.602Z,37.9
2023-01-27T11:52:41.333Z,37.8
2023-01-27T11:58:04.141Z,37.8
2023-01-27T12:03:28.303Z,37.7
2023-01-27T12:08:51.280Z,37.6
2023-01-27T12:14:17.170Z,37.6
2023-01-27T12:19:24.722Z,37.4
2023-01-27T12:24:48.068Z,37.3
2023-01-27T12:30:10.581Z,37.3
2023-01-27T12:35:34.326Z,37.2
2023-01-27T12:40:57.439Z,37.1
2023-01-27T12:46:21.933Z,37.1
2023-01-27T12:51:44.853Z,37.1
2023-01-27T12:57:07.153Z,36.9
2023-01-27T13:02:33.645Z,36.9
2023-01-27T13:07:56.070Z,37
2023-01-27T13:13:19.032Z,37.1
2023-01-27T13:18:42.473Z,37
2023-01-27T13:23:34.180Z,37
2023-01-27T13:28:51.513Z,36.9
2023-01-27T13:34:16.906Z,36.8
2023-01-27T13:39:23.891Z,36.6
2023-01-27T13:44:46.812Z,36.5
2023-01-27T13:49:54.324Z,36.4
2023-01-27T13:55:04.906Z,36.4
2023-01-27T14:00:27.904Z,36.4
2023-01-27T14:05:51.537Z,36.5
2023-01-27T14:11:00.307Z,36.5
2023-01-27T14:16:36.592Z,36.4
2023-01-27T14:21:58.461Z,36.4
2023-01-27T14:27:07.033Z,36.4
2023-01-27T14:32:30.384Z,36.3
2023-01-27T14:37:52.893Z,36.3
2023-01-27T14:43:16.283Z,36.3
2023-01-27T14:49:01.492Z,36.3
2023-01-27T14:54:24.424Z,36.2
2023-01-27T14:59:47.256Z,36.1
2023-01-27T15:05:11.661Z,36.1
2023-01-27T15:10:34.623Z,36.1
2023-01-27T15:15:41.520Z,36.1
2023-01-27T15:21:04.356Z,36
2023-01-27T15:26:26.904Z,36
2023-01-27T15:31:50.418Z,35.9
2023-01-27T15:37:14.383Z,35.7
2023-01-27T15:42:36.259Z,35.5
2023-01-27T15:47:59.267Z,35.2
2023-01-27T15:53:23.987Z,35
2023-01-27T15:58:46.746Z,34.9
2023-01-27T16:04:13.441Z,34.8
2023-01-27T16:09:37.679Z,34.8
2023-01-27T16:15:00.892Z,34.7
2023-01-27T16:20:08.182Z,34.6
2023-01-27T16:25:31.738Z,34.3
2023-01-27T16:30:54.138Z,34.1
2023-01-27T16:36:17.569Z,33.9
2023-01-27T16:41:40.437Z,33.9
2023-01-27T16:47:15.230Z,34.1
2023-01-27T16:52:52.441Z,34.2
2023-01-27T16:58:15.781Z,34.3
2023-01-27T17:03:52.063Z,34.3
2023-01-27T17:09:26.151Z,34.3
2023-01-27T17:15:19.566Z,34.2
2023-01-27T17:20:53.037Z,34
2023-01-27T17:26:16.821Z,32.9
2023-01-27T17:31:43.342Z,31.1
2023-01-27T17:37:18.901Z,29.8
2023-01-27T17:42:47.865Z,28.3
2023-01-27T17:48:16.325Z,27.1
2023-01-27T17:53:46.087Z,25.9
2023-01-27T17:59:01.752Z,25.1
2023-01-27T18:04:14.470Z,24.4
2023-01-27T18:09:39.837Z,23.9
2023-01-27T18:15:08.313Z,23.4
2023-01-27T18:20:36.907Z,23.1
2023-01-27T18:26:08.384Z,22.8
2023-01-27T18:31:20.531Z,22.6
2023-01-27T18:36:51.730Z,22.4
2023-01-27T18:42:09.078Z,22.3
2023-01-27T18:47:49.235Z,22.1
2023-01-27T18:53:30.617Z,21.9
2023-01-27T18:59:10.625Z,21.7
2023-01-27T19:04:49.702Z,21.6
2023-01-27T19:10:22.889Z,21.4
2023-01-27T19:15:51.637Z,21.3
2023-01-27T19:21:18.846Z,21.2
2023-01-27T19:31:34.963Z,21.1
2023-01-27T19:37:03.767Z,21
2023-01-27T19:42:35.164Z,20.9
2023-01-27T19:48:03.096Z,20.9
2023-01-27T19:53:30.798Z,20.9
2023-01-27T19:58:57.457Z,20.9
2023-01-27T20:04:27.543Z,20.8
2023-01-27T20:09:56.362Z,20.8
2023-01-27T20:15:24.664Z,20.8
2023-01-27T20:20:53.562Z,20.8
2023-01-27T20:26:20.394Z,20.8
2023-01-27T20:31:45.607Z,20.6
2023-01-27T20:36:55.844Z,20.5
2023-01-27T20:42:04.619Z,20.5
2023-01-27T20:47:41.015Z,20.6
2023-01-27T20:53:04.030Z,20.9
2023-01-27T20:58:26.939Z,21.3
2023-01-27T21:03:49.678Z,21.9
2023-01-27T21:09:13.261Z,22.7
2023-01-27T21:14:36.051Z,23.5
2023-01-27T21:19:59.755Z,24.3
2023-01-27T21:25:07.248Z,24.8
2023-01-27T21:30:17.356Z,25.1
2023-01-27T21:35:25.270Z,25.3
2023-01-27T21:40:48.028Z,25.5
2023-01-27T21:46:10.867Z,25.6
2023-01-27T21:51:33.688Z,25.7
2023-01-27T21:56:56.929Z,25.8
2023-01-27T22:02:21.359Z,25.8
2023-01-27T22:07:44.928Z,25.8
2023-01-27T22:13:08.304Z,25.8
2023-01-27T22:18:15.375Z,25.8
2023-01-27T22:23:21.540Z,25.8
2023-01-27T22:28:43.530Z,25.8
2023-01-27T22:34:05.898Z,25.8
2023-01-27T22:39:29.617Z,25.8
2023-01-27T22:44:52.405Z,25.8
2023-01-27T22:50:15.016Z,25.8
2023-01-27T22:55:37.231Z,25.8
2023-01-27T23:00:59.389Z,25.8
2023-01-27T23:06:22.985Z,25.8
2023-01-27T23:11:45.238Z,25.8
2023-01-27T23:17:08.857Z,25.8
2023-01-27T23:22:31.136Z,25.8
2023-01-27T23:27:53.816Z,25.8
2023-01-27T23:33:23.415Z,25.8
2023-01-27T23:39:04.275Z,25.8
2023-01-27T23:44:26.741Z,25.8
2023-01-27T23:49:49.248Z,25.7
2023-01-27T23:55:12.034Z,25.7
